sensor_id;sensor_type;location;lat;lon;timestamp;pressure;altitude;pressure_sealevel;temperature;humidity
49030;BME280;43337;52.070;4.508;2023-01-23T00:00:04;103784.22;;;1.53;100.00
49030;BME280;43337;52.070;4.508;2023-01-23T00:02:30;103788.59;;;1.54;100.00
49030;BME280;43337;52.070;4.508;2023-01-23T00:04:55;103787.78;;;1.55;100.00
49030;BME280;43337;52.070;4.508;2023-01-23T00:07:21;103794.13;;;1.62;100.00
49030;BME280;43337;52.070;4.508;2023-01-23T00:09:46;103791.53;;;1.62;100.00
49030;BME280;43337;52.070;4.508;2023-01-23T00:12:11;103783.41;;;1.54;100.00
49030;BME280;43337;52.070;4.508;2023-01-23T00:14:37;103792.22;;;1.58;100.00
49030;BME280;43337;52.070;4.508;2023-01-23T00:17:02;103779.78;;;1.51;100.00
49030;BME280;43337;52.070;4.508;2023-01-23T00:19:27;103762.19;;;1.43;100.00
49030;BME280;43337;52.070;4.508;2023-01-23T00:21:53;103779.72;;;1.49;100.00
49030;BME280;43337;52.070;4.508;2023-01-23T00:24:18;103792.41;;;1.62;100.00
49030;BME280;43337;52.070;4.508;2023-01-23T00:26:43;103787.22;;;1.62;100.00
49030;BME280;43337;52.070;4.508;2023-01-23T00:29:10;103790.59;;;1.61;100.00
49030;BME280;43337;52.070;4.508;2023-01-23T00:31:37;103751.78;;;1.43;100.00
49030;BME280;43337;52.070;4.508;2023-01-23T00:34:09;103781.13;;;1.62;100.00
49030;BME280;43337;52.070;4.508;2023-01-23T00:36:37;103760.53;;;1.45;100.00
49030;BME280;43337;52.070;4.508;2023-01-23T00:39:08;103769.66;;;1.57;100.00
49030;BME280;43337;52.070;4.508;2023-01-23T00:41:34;103755.66;;;1.53;100.00
49030;BME280;43337;52.070;4.508;2023-01-23T00:43:59;103759.41;;;1.60;100.00
49030;BME280;43337;52.070;4.508;2023-01-23T00:46:25;103751.34;;;1.54;100.00
49030;BME280;43337;52.070;4.508;2023-01-23T00:48:50;103757.50;;;1.56;100.00
49030;BME280;43337;52.070;4.508;2023-01-23T00:51:16;103765.41;;;1.59;100.00
49030;BME280;43337;52.070;4.508;2023-01-23T00:53:41;103741.41;;;1.43;100.00
49030;BME280;43337;52.070;4.508;2023-01-23T00:56:07;103736.84;;;1.38;100.00
49030;BME280;43337;52.070;4.508;2023-01-23T00:58:33;103758.25;;;1.53;100.00
49030;BME280;43337;52.070;4.508;2023-01-23T01:00:58;103754.03;;;1.55;100.00
49030;BME280;43337;52.070;4.508;2023-01-23T01:03:23;103743.31;;;1.48;100.00
49030;BME280;43337;52.070;4.508;2023-01-23T01:05:50;103738.88;;;1.45;100.00
49030;BME280;43337;52.070;4.508;2023-01-23T01:08:15;103711.34;;;1.28;100.00
49030;BME280;43337;52.070;4.508;2023-01-23T01:10:41;103728.16;;;1.37;100.00
49030;BME280;43337;52.070;4.508;2023-01-23T01:13:07;103725.66;;;1.39;100.00
49030;BME280;43337;52.070;4.508;2023-01-23T01:15:33;103732.34;;;1.34;100.00
49030;BME280;43337;52.070;4.508;2023-01-23T01:17:58;103756.47;;;1.52;100.00
49030;BME280;43337;52.070;4.508;2023-01-23T01:20:25;103767.59;;;1.50;100.00
49030;BME280;43337;52.070;4.508;2023-01-23T01:22:53;103734.88;;;1.32;100.00
49030;BME280;43337;52.070;4.508;2023-01-23T01:25:18;103769.41;;;1.51;100.00
49030;BME280;43337;52.070;4.508;2023-01-23T01:27:44;103762.41;;;1.50;100.00
49030;BME280;43337;52.070;4.508;2023-01-23T01:30:10;103766.72;;;1.49;100.00
49030;BME280;43337;52.070;4.508;2023-01-23T01:32:39;103771.13;;;1.50;100.00
49030;BME280;43337;52.070;4.508;2023-01-23T01:35:06;103742.81;;;1.35;100.00
49030;BME280;43337;52.070;4.508;2023-01-23T01:37:34;103777.13;;;1.49;100.00
49030;BME280;43337;52.070;4.508;2023-01-23T01:39:59;103775.34;;;1.48;100.00
49030;BME280;43337;52.070;4.508;2023-01-23T01:42:26;103781.38;;;1.47;100.00
49030;BME280;43337;52.070;4.508;2023-01-23T01:44:58;103748.59;;;1.30;100.00
49030;BME280;43337;52.070;4.508;2023-01-23T01:47:25;103786.63;;;1.49;100.00
49030;BME280;43337;52.070;4.508;2023-01-23T01:49:56;103784.84;;;1.48;100.00
49030;BME280;43337;52.070;4.508;2023-01-23T01:52:24;103768.06;;;1.39;100.00
49030;BME280;43337;52.070;4.508;2023-01-23T01:54:58;103779.53;;;1.44;100.00
49030;BME280;43337;52.070;4.508;2023-01-23T01:57:29;103776.00;;;1.42;100.00
49030;BME280;43337;52.070;4.508;2023-01-23T02:00:00;103783.88;;;1.45;100.00
49030;BME280;43337;52.070;4.508;2023-01-23T02:02:31;103749.25;;;1.24;100.00
49030;BME280;43337;52.070;4.508;2023-01-23T02:05:07;103781.03;;;1.39;100.00
49030;BME280;43337;52.070;4.508;2023-01-23T02:10:06;103791.66;;;1.45;100.00
49030;BME280;43337;52.070;4.508;2023-01-23T02:12:32;103742.94;;;1.19;100.00
49030;BME280;43337;52.070;4.508;2023-01-23T02:15:03;103774.97;;;1.39;100.00
49030;BME280;43337;52.070;4.508;2023-01-23T02:17:30;103773.25;;;1.39;100.00
49030;BME280;43337;52.070;4.508;2023-01-23T02:28:09;103798.53;;;1.43;100.00
49030;BME280;43337;52.070;4.508;2023-01-23T02:30:37;103784.38;;;1.37;100.00
49030;BME280;43337;52.070;4.508;2023-01-23T02:35:45;103786.28;;;1.41;100.00
49030;BME280;43337;52.070;4.508;2023-01-23T02:38:11;103793.34;;;1.43;100.00
49030;BME280;43337;52.070;4.508;2023-01-23T02:40:39;103786.28;;;1.41;100.00
49030;BME280;43337;52.070;4.508;2023-01-23T02:43:08;103788.06;;;1.42;100.00
49030;BME280;43337;52.070;4.508;2023-01-23T02:45:34;103774.00;;;1.37;100.00
49030;BME280;43337;52.070;4.508;2023-01-23T02:47:59;103795.03;;;1.43;100.00
49030;BME280;43337;52.070;4.508;2023-01-23T02:50:27;103753.59;;;1.25;100.00
49030;BME280;43337;52.070;4.508;2023-01-23T02:52:53;103788.06;;;1.42;100.00
49030;BME280;43337;52.070;4.508;2023-01-23T02:55:20;103767.78;;;1.33;100.00
49030;BME280;43337;52.070;4.508;2023-01-23T02:57:46;103790.53;;;1.39;100.00
49030;BME280;43337;52.070;4.508;2023-01-23T03:00:12;103795.09;;;1.44;100.00
49030;BME280;43337;52.070;4.508;2023-01-23T03:02:50;103789.63;;;1.38;100.00
49030;BME280;43337;52.070;4.508;2023-01-23T03:05:16;103791.63;;;1.44;100.00
49030;BME280;43337;52.070;4.508;2023-01-23T03:07:42;103795.94;;;1.43;100.00
49030;BME280;43337;52.070;4.508;2023-01-23T03:10:09;103803.63;;;1.42;100.00
49030;BME280;43337;52.070;4.508;2023-01-23T03:12:35;103786.84;;;1.34;100.00
49030;BME280;43337;52.070;4.508;2023-01-23T03:15:07;103782.75;;;1.39;100.00
49030;BME280;43337;52.070;4.508;2023-01-23T03:17:32;103795.94;;;1.43;100.00
49030;BME280;43337;52.070;4.508;2023-01-23T03:19:57;103799.34;;;1.42;100.00
49030;BME280;43337;52.070;4.508;2023-01-23T03:22:23;103807.19;;;1.44;100.00
49030;BME280;43337;52.070;4.508;2023-01-23T03:24:49;103800.25;;;1.43;100.00
49030;BME280;43337;52.070;4.508;2023-01-23T03:27:15;103802.69;;;1.40;100.00
49030;BME280;43337;52.070;4.508;2023-01-23T03:29:40;103795.72;;;1.39;100.00
49030;BME280;43337;52.070;4.508;2023-01-23T03:32:24;103791.56;;;1.42;100.00
49030;BME280;43337;52.070;4.508;2023-01-23T03:34:50;103801.66;;;1.36;100.00
49030;BME280;43337;52.070;4.508;2023-01-23T03:37:17;103810.72;;;1.46;100.00
49030;BME280;43337;52.070;4.508;2023-01-23T03:39:44;103798.25;;;1.37;100.00
49030;BME280;43337;52.070;4.508;2023-01-23T03:42:33;103814.97;;;1.44;100.00
49030;BME280;43337;52.070;4.508;2023-01-23T03:44:58;103807.25;;;1.45;100.00
49030;BME280;43337;52.070;4.508;2023-01-23T03:47:24;103818.59;;;1.48;100.00
49030;BME280;43337;52.070;4.508;2023-01-23T03:49:51;103815.25;;;1.50;100.00
49030;BME280;43337;52.070;4.508;2023-01-23T03:52:16;103812.44;;;1.45;100.00
49030;BME280;43337;52.070;4.508;2023-01-23T03:54:42;103785.06;;;1.33;100.00
49030;BME280;43337;52.070;4.508;2023-01-23T03:57:08;103819.53;;;1.50;100.00
49030;BME280;43337;52.070;4.508;2023-01-23T03:59:33;103792.03;;;1.34;100.00
49030;BME280;43337;52.070;4.508;2023-01-23T04:01:59;103813.25;;;1.44;100.00
49030;BME280;43337;52.070;4.508;2023-01-23T04:04:25;103808.28;;;1.49;100.00
49030;BME280;43337;52.070;4.508;2023-01-23T04:06:51;103817.03;;;1.51;100.00
49030;BME280;43337;52.070;4.508;2023-01-23T04:09:16;103808.13;;;1.46;100.00
49030;BME280;43337;52.070;4.508;2023-01-23T04:11:42;103815.13;;;1.47;100.00
49030;BME280;43337;52.070;4.508;2023-01-23T04:14:07;103805.34;;;1.41;100.00
49030;BME280;43337;52.070;4.508;2023-01-23T04:16:32;103783.38;;;1.33;100.00
49030;BME280;43337;52.070;4.508;2023-01-23T04:18:58;103787.94;;;1.39;100.00
49030;BME280;43337;52.070;4.508;2023-01-23T04:21:23;103811.84;;;1.51;100.00
49030;BME280;43337;52.070;4.508;2023-01-23T04:23:49;103793.13;;;1.39;100.00
49030;BME280;43337;52.070;4.508;2023-01-23T04:26:15;103791.22;;;1.35;100.00
49030;BME280;43337;52.070;4.508;2023-01-23T04:28:40;103812.75;;;1.53;100.00
49030;BME280;43337;52.070;4.508;2023-01-23T04:31:05;103821.44;;;1.54;100.00
49030;BME280;43337;52.070;4.508;2023-01-23T04:33:33;103822.97;;;1.49;100.00
49030;BME280;43337;52.070;4.508;2023-01-23T04:36:01;103820.44;;;1.50;100.00
49030;BME280;43337;52.070;4.508;2023-01-23T04:38:28;103829.31;;;1.55;100.00
49030;BME280;43337;52.070;4.508;2023-01-23T04:40:54;103841.47;;;1.56;100.00
49030;BME280;43337;52.070;4.508;2023-01-23T04:43:20;103841.41;;;1.55;100.00
49030;BME280;43337;52.070;4.508;2023-01-23T04:45:45;103846.66;;;1.56;100.00
49030;BME280;43337;52.070;4.508;2023-01-23T04:48:12;103833.34;;;1.49;100.00
49030;BME280;43337;52.070;4.508;2023-01-23T04:50:38;103841.41;;;1.55;100.00
49030;BME280;43337;52.070;4.508;2023-01-23T04:53:04;103834.41;;;1.54;100.00
49030;BME280;43337;52.070;4.508;2023-01-23T04:55:30;103823.69;;;1.46;100.00
49030;BME280;43337;52.070;4.508;2023-01-23T04:57:55;103842.22;;;1.54;100.00
49030;BME280;43337;52.070;4.508;2023-01-23T05:00:21;103858.06;;;1.60;100.00
49030;BME280;43337;52.070;4.508;2023-01-23T05:02:47;103841.31;;;1.53;100.00
49030;BME280;43337;52.070;4.508;2023-01-23T05:05:13;103855.53;;;1.61;100.00
49030;BME280;43337;52.070;4.508;2023-01-23T05:07:41;103840.78;;;1.60;100.00
49030;BME280;43337;52.070;4.508;2023-01-23T05:10:07;103842.53;;;1.61;100.00
49030;BME280;43337;52.070;4.508;2023-01-23T05:12:33;103843.38;;;1.60;100.00
49030;BME280;43337;52.070;4.508;2023-01-23T05:14:58;103833.63;;;1.55;100.00
49030;BME280;43337;52.070;4.508;2023-01-23T05:17:24;103841.41;;;1.55;100.00
49030;BME280;43337;52.070;4.508;2023-01-23T05:19:49;103849.53;;;1.62;100.00
49030;BME280;43337;52.070;4.508;2023-01-23T05:22:14;103844.34;;;1.62;100.00
49030;BME280;43337;52.070;4.508;2023-01-23T05:24:42;103855.66;;;1.64;100.00
49030;BME280;43337;52.070;4.508;2023-01-23T05:27:07;103845.28;;;1.64;100.00
49030;BME280;43337;52.070;4.508;2023-01-23T05:29:32;103847.06;;;1.65;100.00
49030;BME280;43337;52.070;4.508;2023-01-23T05:31:58;103853.94;;;1.65;100.00
49030;BME280;43337;52.070;4.508;2023-01-23T05:34:23;103808.78;;;1.40;100.00
49030;BME280;43337;52.070;4.508;2023-01-23T05:36:48;103835.59;;;1.60;100.00
49030;BME280;43337;52.070;4.508;2023-01-23T05:39:14;103803.84;;;1.46;100.00
49030;BME280;43337;52.070;4.508;2023-01-23T05:41:39;103830.38;;;1.60;100.00
49030;BME280;43337;52.070;4.508;2023-01-23T05:44:04;103824.81;;;1.51;100.00
49030;BME280;43337;52.070;4.508;2023-01-23T05:46:30;103837.44;;;1.63;100.00
49030;BME280;43337;52.070;4.508;2023-01-23T05:48:55;103848.91;;;1.68;100.00
49030;BME280;43337;52.070;4.508;2023-01-23T05:51:21;103854.09;;;1.68;100.00
49030;BME280;43337;52.070;4.508;2023-01-23T05:53:48;103820.44;;;1.50;100.00
49030;BME280;43337;52.070;4.508;2023-01-23T05:56:14;103847.06;;;1.65;100.00
49030;BME280;43337;52.070;4.508;2023-01-23T05:58:40;103841.88;;;1.65;100.00
49030;BME280;43337;52.070;4.508;2023-01-23T06:01:05;103847.97;;;1.66;100.00
49030;BME280;43337;52.070;4.508;2023-01-23T06:03:31;103854.09;;;1.68;100.00
49030;BME280;43337;52.070;4.508;2023-01-23T06:05:56;103856.69;;;1.68;100.00
49030;BME280;43337;52.070;4.508;2023-01-23T06:08:24;103858.41;;;1.67;100.00
49030;BME280;43337;52.070;4.508;2023-01-23T06:10:49;103859.22;;;1.66;100.00
49030;BME280;43337;52.070;4.508;2023-01-23T06:13:15;103861.03;;;1.69;100.00
49030;BME280;43337;52.070;4.508;2023-01-23T06:15:41;103847.81;;;1.63;100.00
49030;BME280;43337;52.070;4.508;2023-01-23T06:18:07;103863.66;;;1.69;100.00
49030;BME280;43337;52.070;4.508;2023-01-23T06:20:33;103853.91;;;1.63;100.00
49030;BME280;43337;52.070;4.508;2023-01-23T06:22:59;103869.75;;;1.69;100.00
49030;BME280;43337;52.070;4.508;2023-01-23T06:25:25;103827.22;;;1.46;100.00
49030;BME280;43337;52.070;4.508;2023-01-23T06:27:50;103858.34;;;1.66;100.00
49030;BME280;43337;52.070;4.508;2023-01-23T06:30:16;103868.94;;;1.70;100.00
49030;BME280;43337;52.070;4.508;2023-01-23T06:32:41;103854.72;;;1.62;100.00
49030;BME280;43337;52.070;4.508;2023-01-23T06:35:07;103855.75;;;1.66;100.00
49030;BME280;43337;52.070;4.508;2023-01-23T06:37:32;103857.31;;;1.62;100.00
49030;BME280;43337;52.070;4.508;2023-01-23T06:39:57;103833.47;;;1.52;100.00
49030;BME280;43337;52.070;4.508;2023-01-23T06:42:23;103857.56;;;1.68;100.00
49030;BME280;43337;52.070;4.508;2023-01-23T06:44:48;103847.00;;;1.64;100.00
49030;BME280;43337;52.070;4.508;2023-01-23T06:47:14;103838.03;;;1.57;100.00
49030;BME280;43337;52.070;4.508;2023-01-23T06:49:40;103866.13;;;1.66;100.00
49030;BME280;43337;52.070;4.508;2023-01-23T06:52:05;103857.03;;;1.56;100.00
49030;BME280;43337;52.070;4.508;2023-01-23T06:54:32;103834.88;;;1.43;100.00
49030;BME280;43337;52.070;4.508;2023-01-23T06:56:57;103832.28;;;1.43;100.00
49030;BME280;43337;52.070;4.508;2023-01-23T06:59:23;103855.19;;;1.54;100.00
49030;BME280;43337;52.070;4.508;2023-01-23T07:01:48;103873.69;;;1.61;100.00
49030;BME280;43337;52.070;4.508;2023-01-23T07:04:13;103858.81;;;1.57;100.00
49030;BME280;43337;52.070;4.508;2023-01-23T07:06:39;103864.97;;;1.59;100.00
49030;BME280;43337;52.070;4.508;2023-01-23T07:09:04;103886.13;;;1.68;100.00
49030;BME280;43337;52.070;4.508;2023-01-23T07:11:30;103879.13;;;1.66;100.00
49030;BME280;43337;52.070;4.508;2023-01-23T07:13:55;103862.03;;;1.52;100.00
49030;BME280;43337;52.070;4.508;2023-01-23T07:16:20;103861.16;;;1.51;100.00
49030;BME280;43337;52.070;4.508;2023-01-23T07:18:46;103862.94;;;1.52;100.00
49030;BME280;43337;52.070;4.508;2023-01-23T07:21:12;103877.22;;;1.62;100.00
49030;BME280;43337;52.070;4.508;2023-01-23T07:23:37;103884.91;;;1.60;100.00
49030;BME280;43337;52.070;4.508;2023-01-23T07:26:04;103896.59;;;1.70;100.00
49030;BME280;43337;52.070;4.508;2023-01-23T07:28:35;103896.47;;;1.67;100.00
49030;BME280;43337;52.070;4.508;2023-01-23T07:31:00;103897.50;;;1.70;100.00
49030;BME280;43337;52.070;4.508;2023-01-23T07:33:26;103880.41;;;1.56;100.00
49030;BME280;43337;52.070;4.508;2023-01-23T07:35:51;103889.50;;;1.66;100.00
49030;BME280;43337;52.070;4.508;2023-01-23T07:38:16;103879.38;;;1.53;100.00
49030;BME280;43337;52.070;4.508;2023-01-23T07:40:42;103907.00;;;1.70;100.00
49030;BME280;43337;52.070;4.508;2023-01-23T07:43:09;103913.06;;;1.70;100.00
49030;BME280;43337;52.070;4.508;2023-01-23T07:45:36;103912.94;;;1.67;100.00
49030;BME280;43337;52.070;4.508;2023-01-23T07:48:02;103914.66;;;1.67;100.00
49030;BME280;43337;52.070;4.508;2023-01-23T07:50:28;103920.91;;;1.72;100.00
49030;BME280;43337;52.070;4.508;2023-01-23T07:52:53;103925.22;;;1.71;100.00
49030;BME280;43337;52.070;4.508;2023-01-23T07:55:18;103921.56;;;1.66;100.00
49030;BME280;43337;52.070;4.508;2023-01-23T07:57:44;103934.78;;;1.73;100.00
49030;BME280;43337;52.070;4.508;2023-01-23T08:00:10;103902.75;;;1.53;100.00
49030;BME280;43337;52.070;4.508;2023-01-23T08:02:36;103936.50;;;1.72;100.00
49030;BME280;43337;52.070;4.508;2023-01-23T08:05:02;103922.59;;;1.70;100.00
49030;BME280;43337;52.070;4.508;2023-01-23T08:07:27;103932.97;;;1.70;100.00
49030;BME280;43337;52.070;4.508;2023-01-23T08:09:53;103944.56;;;1.78;100.00
49030;BME280;43337;52.070;4.508;2023-01-23T08:12:18;103933.03;;;1.71;100.00
49030;BME280;43337;52.070;4.508;2023-01-23T08:14:43;103947.91;;;1.76;100.00
49030;BME280;43337;52.070;4.508;2023-01-23T08:17:09;103944.50;;;1.77;100.00
49030;BME280;43337;52.070;4.508;2023-01-23T08:19:34;103941.25;;;1.81;100.00
49030;BME280;43337;52.070;4.508;2023-01-23T08:21:59;103923.13;;;1.63;100.00
49030;BME280;43337;52.070;4.508;2023-01-23T08:24:25;103932.69;;;1.64;100.00
49030;BME280;43337;52.070;4.508;2023-01-23T08:26:50;103969.91;;;1.84;100.00
49030;BME280;43337;52.070;4.508;2023-01-23T08:29:15;103974.38;;;1.86;100.00
49030;BME280;43337;52.070;4.508;2023-01-23T08:31:41;103962.91;;;1.81;100.00
49030;BME280;43337;52.070;4.508;2023-01-23T08:34:06;103963.78;;;1.82;100.00
49030;BME280;43337;52.070;4.508;2023-01-23T08:36:32;103974.31;;;1.85;100.00
49030;BME280;43337;52.070;4.508;2023-01-23T08:38:58;103982.22;;;1.88;100.00
49030;BME280;43337;52.070;4.508;2023-01-23T08:41:23;103965.41;;;1.80;100.00
49030;BME280;43337;52.070;4.508;2023-01-23T08:43:49;103982.44;;;1.92;100.00
49030;BME280;43337;52.070;4.508;2023-01-23T08:46:15;103968.34;;;1.87;100.00
49030;BME280;43337;52.070;4.508;2023-01-23T08:48:40;103977.81;;;1.85;100.00
49030;BME280;43337;52.070;4.508;2023-01-23T08:51:09;103984.06;;;1.90;100.00
49030;BME280;43337;52.070;4.508;2023-01-23T08:53:35;103991.19;;;1.94;100.00
49030;BME280;43337;52.070;4.508;2023-01-23T08:56:01;103992.22;;;1.98;100.00
49030;BME280;43337;52.070;4.508;2023-01-23T08:58:27;103984.38;;;1.97;100.00
49030;BME280;43337;52.070;4.508;2023-01-23T09:00:53;103983.53;;;1.98;100.00
49030;BME280;43337;52.070;4.508;2023-01-23T09:03:18;103987.00;;;1.98;100.00
49030;BME280;43337;52.070;4.508;2023-01-23T09:05:44;103957.06;;;1.87;100.00
49030;BME280;43337;52.070;4.508;2023-01-23T09:08:09;103998.56;;;2.05;100.00
49030;BME280;43337;52.070;4.508;2023-01-23T09:10:35;103990.84;;;2.06;100.00
49030;BME280;43337;52.070;4.508;2023-01-23T09:13:00;103988.31;;;2.08;100.00
49030;BME280;43337;52.070;4.508;2023-01-23T09:15:26;103989.94;;;2.06;100.00
49030;BME280;43337;52.070;4.508;2023-01-23T09:17:52;103977.69;;;2.03;100.00
49030;BME280;43337;52.070;4.508;2023-01-23T09:20:17;103991.16;;;2.14;100.00
49030;BME280;43337;52.070;4.508;2023-01-23T09:22:43;103999.16;;;2.18;100.00
49030;BME280;43337;52.070;4.508;2023-01-23T09:25:09;103986.06;;;2.15;100.00
49030;BME280;43337;52.070;4.508;2023-01-23T09:27:34;103978.25;;;2.15;100.00
49030;BME280;43337;52.070;4.508;2023-01-23T09:30:00;103967.53;;;2.08;100.00
49030;BME280;43337;52.070;4.508;2023-01-23T09:32:25;103967.72;;;2.12;100.00
49030;BME280;43337;52.070;4.508;2023-01-23T09:34:50;103984.59;;;2.22;100.00
49030;BME280;43337;52.070;4.508;2023-01-23T09:37:16;103974.00;;;2.17;100.00
49030;BME280;43337;52.070;4.508;2023-01-23T09:39:42;103987.47;;;2.28;100.00
49030;BME280;43337;52.070;4.508;2023-01-23T09:42:20;103991.22;;;2.35;100.00
49030;BME280;43337;52.070;4.508;2023-01-23T09:44:59;103983.09;;;2.27;100.00
49030;BME280;43337;52.070;4.508;2023-01-23T09:47:42;103998.38;;;2.40;100.00
49030;BME280;43337;52.070;4.508;2023-01-23T09:50:51;103994.06;;;2.41;100.00
49030;BME280;43337;52.070;4.508;2023-01-23T09:53:20;104002.03;;;2.45;100.00
49030;BME280;43337;52.070;4.508;2023-01-23T09:55:56;103986.06;;;2.36;100.00
49030;BME280;43337;52.070;4.508;2023-01-23T09:58:27;103993.34;;;2.45;100.00
49030;BME280;43337;52.070;4.508;2023-01-23T10:00:57;103989.97;;;2.46;100.00
49030;BME280;43337;52.070;4.508;2023-01-23T10:03:27;103991.06;;;2.53;100.00
49030;BME280;43337;52.070;4.508;2023-01-23T10:06:23;103992.94;;;2.55;100.00
49030;BME280;43337;52.070;4.508;2023-01-23T10:20:02;103997.22;;;2.76;100.00
49030;BME280;43337;52.070;4.508;2023-01-23T10:22:40;104000.84;;;2.79;100.00
49030;BME280;43337;52.070;4.508;2023-01-23T10:25:18;103995.59;;;2.78;100.00
49030;BME280;43337;52.070;4.508;2023-01-23T10:27:45;103999.38;;;2.86;100.00
49030;BME280;43337;52.070;4.508;2023-01-23T10:30:31;103993.44;;;2.88;100.00
49030;BME280;43337;52.070;4.508;2023-01-23T10:33:10;103990.88;;;2.90;100.00
49030;BME280;43337;52.070;4.508;2023-01-23T10:35:45;103985.72;;;2.91;100.00
49030;BME280;43337;52.070;4.508;2023-01-23T10:40:58;103985.09;;;2.97;100.00
49030;BME280;43337;52.070;4.508;2023-01-23T10:43:40;103972.91;;;2.96;100.00
49030;BME280;43337;52.070;4.508;2023-01-23T10:46:21;103992.50;;;3.09;100.00
49030;BME280;43337;52.070;4.508;2023-01-23T10:48:52;103998.75;;;3.14;100.00
49030;BME280;43337;52.070;4.508;2023-01-23T10:56:30;103980.41;;;3.11;100.00
49030;BME280;43337;52.070;4.508;2023-01-23T10:58:58;103969.94;;;3.09;100.00
49030;BME280;43337;52.070;4.508;2023-01-23T11:01:31;103994.81;;;3.24;100.00
49030;BME280;43337;52.070;4.508;2023-01-23T11:04:08;103992.34;;;3.27;100.00
49030;BME280;43337;52.070;4.508;2023-01-23T11:06:33;103979.66;;;3.13;100.00
49030;BME280;43337;52.070;4.508;2023-01-23T11:09:00;103988.66;;;3.22;100.00
49030;BME280;43337;52.070;4.508;2023-01-23T11:11:26;104012.50;;;3.32;100.00
49030;BME280;43337;52.070;4.508;2023-01-23T11:14:10;104010.06;;;3.37;100.00
49030;BME280;43337;52.070;4.508;2023-01-23T11:16:37;103998.78;;;3.36;100.00
49030;BME280;43337;52.070;4.508;2023-01-23T11:21:55;104003.50;;;3.47;100.00
49030;BME280;43337;52.070;4.508;2023-01-23T11:27:20;104002.78;;;3.51;100.00
49030;BME280;43337;52.070;4.508;2023-01-23T11:38:17;103980.66;;;3.62;100.00
49030;BME280;43337;52.070;4.508;2023-01-23T11:40:45;103988.03;;;3.74;100.00
49030;BME280;43337;52.070;4.508;2023-01-23T11:43:15;103973.31;;;3.76;100.00
49030;BME280;43337;52.070;4.508;2023-01-23T11:51:05;103966.47;;;4.03;100.00
49030;BME280;43337;52.070;4.508;2023-01-23T12:04:08;103980.41;;;4.04;100.00
49030;BME280;43337;52.070;4.508;2023-01-23T12:09:14;103987.84;;;3.93;100.00
49030;BME280;43337;52.070;4.508;2023-01-23T12:12:26;103986.78;;;3.88;100.00
49030;BME280;43337;52.070;4.508;2023-01-23T12:14:41;103990.22;;;3.87;100.00
49030;BME280;43337;52.070;4.508;2023-01-23T12:17:35;103980.63;;;3.86;100.00
49030;BME280;43337;52.070;4.508;2023-01-23T12:20:27;103977.34;;;3.91;100.00
49030;BME280;43337;52.070;4.508;2023-01-23T12:23:11;103971.53;;;3.99;100.00
49030;BME280;43337;52.070;4.508;2023-01-23T12:25:46;103958.34;;;3.94;100.00
49030;BME280;43337;52.070;4.508;2023-01-23T12:28:22;103980.78;;;4.14;100.00
49030;BME280;43337;52.070;4.508;2023-01-23T12:31:09;103975.63;;;4.16;100.00
49030;BME280;43337;52.070;4.508;2023-01-23T12:33:58;103989.81;;;4.24;100.00
49030;BME280;43337;52.070;4.508;2023-01-23T12:36:56;104000.41;;;4.29;100.00
49030;BME280;43337;52.070;4.508;2023-01-23T12:39:47;103998.94;;;4.37;100.00
49030;BME280;43337;52.070;4.508;2023-01-23T12:42:33;104002.50;;;4.39;100.00
49030;BME280;43337;52.070;4.508;2023-01-23T12:45:27;103973.41;;;4.27;100.00
49030;BME280;43337;52.070;4.508;2023-01-23T12:48:24;104011.41;;;4.46;100.00
49030;BME280;43337;52.070;4.508;2023-01-23T12:50:58;104001.97;;;4.49;100.00
49030;BME280;43337;52.070;4.508;2023-01-23T12:53:26;104003.84;;;4.53;100.00
49030;BME280;43337;52.070;4.508;2023-01-23T12:56:01;103999.53;;;4.54;100.00
49030;BME280;43337;52.070;4.508;2023-01-23T12:58:31;103989.88;;;4.51;100.00
49030;BME280;43337;52.070;4.508;2023-01-23T13:10:10;103994.41;;;4.31;100.00
49030;BME280;43337;52.070;4.508;2023-01-23T13:12:40;103975.00;;;4.23;100.00
49030;BME280;43337;52.070;4.508;2023-01-23T13:17:50;103982.16;;;4.29;100.00
49030;BME280;43337;52.070;4.508;2023-01-23T13:20:23;103986.59;;;4.31;100.00
49030;BME280;43337;52.070;4.508;2023-01-23T13:23:26;103977.03;;;4.32;100.00
49030;BME280;43337;52.070;4.508;2023-01-23T13:26:22;103978.91;;;4.36;100.00
49030;BME280;43337;52.070;4.508;2023-01-23T13:28:57;103974.69;;;4.39;100.00
49030;BME280;43337;52.070;4.508;2023-01-23T13:31:42;103972.97;;;4.40;100.00
49030;BME280;43337;52.070;4.508;2023-01-23T13:36:49;103962.81;;;4.49;100.00
49030;BME280;43337;52.070;4.508;2023-01-23T13:41:41;103953.38;;;4.53;100.00
49030;BME280;43337;52.070;4.508;2023-01-23T13:44:19;103937.72;;;4.53;100.00
49030;BME280;43337;52.070;4.508;2023-01-23T13:52:37;103912.69;;;4.31;100.00
49030;BME280;43337;52.070;4.508;2023-01-23T13:55:30;103910.16;;;4.34;100.00
49030;BME280;43337;52.070;4.508;2023-01-23T13:58:21;103925.97;;;4.38;100.00
49030;BME280;43337;52.070;4.508;2023-01-23T14:03:39;103904.16;;;4.36;100.00
49030;BME280;43337;52.070;4.508;2023-01-23T14:06:33;103906.66;;;4.33;100.00
49030;BME280;43337;52.070;4.508;2023-01-23T14:08:59;103903.88;;;4.27;100.00
49030;BME280;43337;52.070;4.508;2023-01-23T14:11:33;103907.34;;;4.28;100.00
49030;BME280;43337;52.070;4.508;2023-01-23T14:14:00;103911.84;;;4.32;100.00
49030;BME280;43337;52.070;4.508;2023-01-23T14:16:46;103923.16;;;4.32;100.00
49030;BME280;43337;52.070;4.508;2023-01-23T14:19:25;103919.50;;;4.27;100.00
49030;BME280;43337;52.070;4.508;2023-01-23T14:21:59;103928.31;;;4.31;100.00
49030;BME280;43337;52.070;4.508;2023-01-23T14:24:51;103928.09;;;4.25;100.00
49030;BME280;43337;52.070;4.508;2023-01-23T14:27:26;103924.47;;;4.20;100.00
49030;BME280;43337;52.070;4.508;2023-01-23T14:32:36;103943.50;;;4.17;100.00